createdAt,value
2019-06-08T00:00:01.626Z,17.90
2019-06-08T00:02:29.023Z,17.90
2019-06-08T00:04:56.360Z,18.00
2019-06-08T00:07:23.712Z,18.00
2019-06-08T00:09:51.085Z,18.20
2019-06-08T00:12:18.988Z,18.30
2019-06-08T00:14:46.608Z,18.30
2019-06-08T00:17:29.359Z,18.10
2019-06-08T00:19:43.288Z,18.00
2019-06-08T00:22:11.421Z,18.00
2019-06-08T00:24:38.874Z,17.90
2019-06-08T00:27:06.326Z,18.00
2019-06-08T00:29:33.682Z,17.80
2019-06-08T00:32:01.149Z,17.90
2019-06-08T00:34:28.861Z,17.80
2019-06-08T00:36:56.297Z,17.60
2019-06-08T00:39:25.000Z,17.70
2019-06-08T00:41:52.635Z,17.60
2019-06-08T00:44:21.249Z,17.70
2019-06-08T00:46:48.788Z,17.70
2019-06-08T00:49:16.431Z,17.60
2019-06-08T00:51:43.977Z,17.40
2019-06-08T00:54:11.395Z,17.60
2019-06-08T00:56:38.730Z,17.50
2019-06-08T00:59:06.082Z,17.50
2019-06-08T01:01:33.420Z,17.50
2019-06-08T01:04:00.837Z,17.40
2019-06-08T01:06:29.747Z,17.30
2019-06-08T01:08:57.282Z,17.50
2019-06-08T01:11:24.796Z,17.30
2019-06-08T01:13:52.761Z,17.10
2019-06-08T01:16:20.937Z,17.20
2019-06-08T01:18:48.413Z,17.30
2019-06-08T01:21:16.063Z,17.10
2019-06-08T01:23:43.551Z,17.10
2019-06-08T01:26:10.878Z,17.00
2019-06-08T01:28:38.332Z,17.10
2019-06-08T01:31:05.738Z,17.10
2019-06-08T01:33:33.080Z,17.00
2019-06-08T01:36:00.556Z,17.00
2019-06-08T01:38:29.152Z,17.20
2019-06-08T01:40:56.594Z,17.20
2019-06-08T01:43:23.926Z,17.10
2019-06-08T01:45:51.345Z,16.90
2019-06-08T01:48:20.553Z,16.90
2019-06-08T01:50:48.174Z,16.80
2019-06-08T01:53:15.551Z,16.90
2019-06-08T01:55:42.982Z,16.90
2019-06-08T01:58:10.271Z,16.80
2019-06-08T02:00:41.096Z,16.70
2019-06-08T02:03:06.877Z,16.70
2019-06-08T02:05:34.554Z,16.90
2019-06-08T02:08:02.112Z,16.80
2019-06-08T02:10:30.757Z,16.80
2019-06-08T02:12:58.291Z,16.90
2019-06-08T02:15:27.094Z,16.80
2019-06-08T02:17:54.695Z,16.60
2019-06-08T02:20:22.198Z,16.60
2019-06-08T02:22:49.507Z,16.80
2019-06-08T02:25:17.084Z,16.90
2019-06-08T02:27:44.842Z,16.80
2019-06-08T02:30:13.311Z,16.90
2019-06-08T02:32:40.731Z,16.90
2019-06-08T02:35:08.807Z,16.60
2019-06-08T02:37:38.344Z,16.60
2019-06-08T02:40:05.921Z,16.50
2019-06-08T02:42:35.302Z,16.40
2019-06-08T02:45:03.411Z,16.40
2019-06-08T02:47:32.431Z,16.40
2019-06-08T02:49:59.959Z,16.60
2019-06-08T02:52:29.940Z,16.80
2019-06-08T02:54:58.818Z,16.70
2019-06-08T02:57:29.155Z,16.60
2019-06-08T03:00:00.037Z,16.60
2019-06-08T03:02:29.632Z,16.60
2019-06-08T03:04:59.081Z,16.40
2019-06-08T03:07:30.368Z,16.60
2019-06-08T03:09:59.497Z,16.60
2019-06-08T03:12:27.265Z,16.50
2019-06-08T03:14:54.846Z,16.50
2019-06-08T03:17:22.636Z,16.30
2019-06-08T03:19:49.943Z,16.20
2019-06-08T03:22:17.603Z,16.20
2019-06-08T03:24:44.934Z,16.10
2019-06-08T03:27:12.331Z,16.10
2019-06-08T03:29:41.576Z,16.00
2019-06-08T03:32:08.893Z,16.00
2019-06-08T03:34:45.786Z,15.90
2019-06-08T03:37:05.422Z,16.10
2019-06-08T03:39:34.980Z,16.30
2019-06-08T03:42:02.394Z,16.40
2019-06-08T03:44:29.811Z,16.30
2019-06-08T03:46:57.127Z,16.10
2019-06-08T03:49:40.344Z,16.10
2019-06-08T03:51:54.070Z,16.00
2019-06-08T03:54:21.481Z,15.90
2019-06-08T03:56:49.205Z,16.10
2019-06-08T03:59:16.633Z,16.20
2019-06-08T04:01:45.990Z,16.20
2019-06-08T04:04:13.632Z,16.20
2019-06-08T04:06:41.498Z,16.20
2019-06-08T04:09:09.060Z,16.40
2019-06-08T04:11:37.716Z,16.40
2019-06-08T04:14:05.214Z,16.30
2019-06-08T04:16:32.642Z,16.30
2019-06-08T04:18:59.925Z,16.20
2019-06-08T04:21:27.224Z,16.30
2019-06-08T04:23:54.491Z,16.30
2019-06-08T04:26:21.940Z,16.00
2019-06-08T04:28:49.744Z,16.00
2019-06-08T04:31:17.365Z,16.10
2019-06-08T04:33:46.316Z,16.20
2019-06-08T04:36:13.933Z,16.20
2019-06-08T04:38:41.364Z,16.20
2019-06-08T04:41:09.278Z,16.10
2019-06-08T04:43:38.322Z,16.00
2019-06-08T04:46:05.891Z,16.00
2019-06-08T04:48:33.299Z,16.00
2019-06-08T04:51:00.703Z,16.10
2019-06-08T04:53:28.129Z,16.00
2019-06-08T04:55:55.569Z,16.10
2019-06-08T04:58:22.976Z,16.10
2019-06-08T05:00:50.950Z,16.10
2019-06-08T05:03:18.576Z,16.00
2019-06-08T05:05:47.587Z,16.00
2019-06-08T05:08:15.544Z,16.00
2019-06-08T05:10:43.260Z,16.00
2019-06-08T05:13:10.869Z,15.90
2019-06-08T05:15:39.129Z,15.80
2019-06-08T05:18:06.611Z,15.90
2019-06-08T05:20:38.944Z,15.80
2019-06-08T05:23:03.361Z,15.90
2019-06-08T05:25:30.747Z,15.80
2019-06-08T05:27:58.101Z,15.80
2019-06-08T05:30:28.065Z,15.90
2019-06-08T05:32:55.066Z,15.80
2019-06-08T05:35:22.430Z,15.90
2019-06-08T05:37:49.861Z,15.80
2019-06-08T05:40:17.935Z,15.70
2019-06-08T05:42:45.719Z,15.80
2019-06-08T05:45:13.475Z,16.10
2019-06-08T05:47:41.802Z,16.10
2019-06-08T05:50:09.824Z,16.20
2019-06-08T05:52:37.235Z,16.30
2019-06-08T05:55:04.878Z,16.50
2019-06-08T05:57:32.198Z,16.50
2019-06-08T05:59:59.541Z,16.20
2019-06-08T06:02:26.984Z,16.10
2019-06-08T06:04:54.307Z,16.20
2019-06-08T06:07:21.715Z,16.20
2019-06-08T06:09:49.049Z,16.20
2019-06-08T06:12:16.319Z,16.20
2019-06-08T06:14:44.664Z,16.20
2019-06-08T06:17:12.413Z,16.20
2019-06-08T06:19:40.966Z,16.40
2019-06-08T06:22:08.550Z,16.50
2019-06-08T06:24:35.935Z,16.50
2019-06-08T06:27:03.470Z,16.60
2019-06-08T06:29:30.800Z,16.70
2019-06-08T06:31:58.155Z,16.70
2019-06-08T06:34:25.546Z,16.80
2019-06-08T06:36:52.955Z,16.70
2019-06-08T06:39:20.275Z,16.80
2019-06-08T06:41:48.029Z,16.80
2019-06-08T06:44:15.350Z,16.80
2019-06-08T06:46:43.899Z,17.10
2019-06-08T06:49:11.365Z,17.00
2019-06-08T06:51:38.801Z,17.10
2019-06-08T06:54:06.128Z,17.20
2019-06-08T06:56:33.604Z,17.30
2019-06-08T06:59:00.917Z,17.20
2019-06-08T07:01:28.799Z,17.40
2019-06-08T07:03:56.298Z,17.40
2019-06-08T07:06:23.739Z,17.70
2019-06-08T07:08:52.364Z,17.80
2019-06-08T07:11:19.939Z,17.50
2019-06-08T07:13:47.267Z,17.70
2019-06-08T07:16:18.475Z,17.80
2019-06-08T07:18:43.926Z,17.80
2019-06-08T07:21:11.719Z,17.70
2019-06-08T07:23:39.109Z,17.70
2019-06-08T07:26:09.351Z,17.60
2019-06-08T07:28:36.619Z,17.50
2019-06-08T07:31:03.977Z,17.30
2019-06-08T07:33:31.635Z,17.50
2019-06-08T07:35:59.885Z,17.80
2019-06-08T07:38:27.630Z,17.40
2019-06-08T07:40:58.578Z,17.20
2019-06-08T07:43:24.249Z,17.20
2019-06-08T07:45:51.968Z,17.20
2019-06-08T07:48:19.347Z,17.40
2019-06-08T07:50:48.250Z,17.70
2019-06-08T07:53:15.976Z,18.00
2019-06-08T07:55:45.364Z,18.00
2019-06-08T07:58:13.024Z,18.10
2019-06-08T08:00:40.407Z,18.30
2019-06-08T08:03:07.825Z,18.50
2019-06-08T08:05:35.167Z,18.60
2019-06-08T08:08:02.506Z,18.50
2019-06-08T08:10:29.839Z,18.40
2019-06-08T08:12:57.196Z,18.60
2019-06-08T08:15:24.527Z,18.50
2019-06-08T08:17:52.592Z,18.40
2019-06-08T08:20:21.342Z,18.20
2019-06-08T08:22:52.712Z,18.20
2019-06-08T08:25:18.358Z,18.10
2019-06-08T08:27:47.869Z,18.00
2019-06-08T08:30:17.751Z,17.90
2019-06-08T08:32:44.786Z,17.80
2019-06-08T08:35:12.742Z,17.70
2019-06-08T08:37:40.063Z,17.90
2019-06-08T08:40:07.907Z,18.10
2019-06-08T08:42:38.294Z,18.20
2019-06-08T08:45:08.661Z,18.40
2019-06-08T08:47:34.995Z,18.50
2019-06-08T08:50:02.405Z,18.40
2019-06-08T08:52:36.921Z,18.40
2019-06-08T08:55:00.376Z,18.50
2019-06-08T08:57:28.919Z,18.70
2019-06-08T09:00:00.999Z,18.80
2019-06-08T09:02:27.626Z,18.70
2019-06-08T09:04:55.249Z,18.50
2019-06-08T09:07:22.863Z,18.60
2019-06-08T09:09:51.942Z,18.80
2019-06-08T09:12:19.546Z,18.70
2019-06-08T09:14:47.939Z,18.80
2019-06-08T09:17:17.915Z,18.90
2019-06-08T09:19:44.937Z,19.10
2019-06-08T09:22:12.299Z,19.30
2019-06-08T09:24:39.676Z,19.40
2019-06-08T09:27:07.991Z,19.40
2019-06-08T09:29:38.565Z,19.50
2019-06-08T09:32:04.993Z,19.50
2019-06-08T09:34:32.529Z,19.50
2019-06-08T09:37:02.743Z,19.30
2019-06-08T09:39:29.556Z,19.30
2019-06-08T09:42:00.450Z,19.50
2019-06-08T09:44:28.090Z,19.90
2019-06-08T09:46:58.730Z,20.10
2019-06-08T09:49:24.898Z,20.00
2019-06-08T09:51:53.806Z,20.00
2019-06-08T09:54:21.569Z,20.10
2019-06-08T09:56:49.436Z,20.10
2019-06-08T09:59:18.593Z,20.10
2019-06-08T10:01:46.870Z,20.20
2019-06-08T10:04:14.436Z,20.60
2019-06-08T10:06:42.295Z,20.70
2019-06-08T10:09:10.309Z,20.60
2019-06-08T10:11:38.120Z,20.70
2019-06-08T10:14:11.335Z,20.70
2019-06-08T10:16:38.010Z,21.00
2019-06-08T10:19:07.079Z,21.10
2019-06-08T10:21:33.791Z,20.80
2019-06-08T10:24:04.396Z,20.90
2019-06-08T10:26:30.534Z,21.00
2019-06-08T10:29:00.248Z,21.00
2019-06-08T10:31:38.352Z,21.40
2019-06-08T10:34:00.569Z,21.50
2019-06-08T10:36:28.396Z,21.40
2019-06-08T10:38:56.724Z,21.70
2019-06-08T10:41:27.633Z,21.70
2019-06-08T10:43:54.198Z,22.00
2019-06-08T10:46:21.738Z,22.10
2019-06-08T10:48:49.758Z,22.20
2019-06-08T10:51:18.322Z,22.50
2019-06-08T10:53:51.938Z,22.70
2019-06-08T10:56:15.386Z,22.50
2019-06-08T10:58:43.213Z,22.70
2019-06-08T11:01:12.689Z,22.80
2019-06-08T11:03:39.964Z,22.90
2019-06-08T11:06:11.366Z,22.90
2019-06-08T11:08:38.828Z,23.10
2019-06-08T11:11:09.793Z,23.10
2019-06-08T11:13:35.338Z,23.10
2019-06-08T11:16:05.345Z,23.20
2019-06-08T11:18:32.421Z,23.40
2019-06-08T11:21:01.901Z,23.60
2019-06-08T11:23:29.246Z,23.80
2019-06-08T11:26:02.958Z,24.30
2019-06-08T11:28:28.289Z,24.50
2019-06-08T11:31:01.773Z,24.80
2019-06-08T11:33:30.489Z,25.30
2019-06-08T11:36:02.981Z,25.60
2019-06-08T11:38:28.880Z,25.90
2019-06-08T11:40:57.935Z,26.00
2019-06-08T11:43:28.554Z,26.30
2019-06-08T11:45:55.277Z,26.90
2019-06-08T11:48:23.734Z,28.10
2019-06-08T11:50:51.770Z,29.20
2019-06-08T11:53:19.371Z,30.00
2019-06-08T11:55:50.747Z,31.70
2019-06-08T11:58:22.541Z,33.40
2019-06-08T12:01:10.048Z,35.00
2019-06-08T12:03:38.553Z,37.30
2019-06-08T12:06:06.895Z,39.30
2019-06-08T12:08:35.086Z,40.80
2019-06-08T12:11:04.237Z,42.20
2019-06-08T12:13:32.639Z,43.40
2019-06-08T12:16:00.126Z,44.60
2019-06-08T12:18:27.818Z,46.60
2019-06-08T12:20:55.785Z,47.70
2019-06-08T12:23:23.206Z,47.80
2019-06-08T12:25:52.521Z,49.00
2019-06-08T12:28:20.073Z,49.00
2019-06-08T12:30:47.991Z,47.20
2019-06-08T12:33:18.811Z,47.40
2019-06-08T12:35:47.691Z,47.90
2019-06-08T12:38:16.501Z,49.00
2019-06-08T12:40:44.612Z,49.20
2019-06-08T12:43:13.230Z,49.50
2019-06-08T12:45:41.593Z,50.40
2019-06-08T12:48:15.739Z,49.60
2019-06-08T12:50:38.922Z,50.50
2019-06-08T12:53:10.321Z,50.90
2019-06-08T12:55:37.731Z,51.80
2019-06-08T12:58:08.134Z,50.60
2019-06-08T13:00:35.017Z,50.00
2019-06-08T13:03:02.375Z,48.80
2019-06-08T13:05:29.845Z,48.00
2019-06-08T13:07:58.948Z,46.80
2019-06-08T13:10:27.758Z,47.90
2019-06-08T13:12:58.185Z,48.80
2019-06-08T13:15:44.572Z,48.90
2019-06-08T13:18:13.614Z,49.20
2019-06-08T13:20:41.262Z,49.70
2019-06-08T13:23:10.049Z,49.10
2019-06-08T13:25:43.437Z,47.00
2019-06-08T13:28:08.799Z,45.70
2019-06-08T13:30:38.830Z,45.90
2019-06-08T13:33:07.916Z,44.80
2019-06-08T13:35:35.386Z,44.60
2019-06-08T13:38:02.872Z,44.60
2019-06-08T13:40:30.326Z,45.50
2019-06-08T13:42:58.305Z,45.90
2019-06-08T13:45:27.831Z,46.30
2019-06-08T13:47:55.087Z,45.00
2019-06-08T13:50:23.993Z,45.80
2019-06-08T13:52:51.742Z,44.90
2019-06-08T13:55:36.486Z,44.50
2019-06-08T13:57:49.153Z,43.90
2019-06-08T14:00:21.021Z,44.10
2019-06-08T14:02:48.340Z,43.80
2019-06-08T14:05:24.789Z,43.20
2019-06-08T14:07:50.218Z,42.30
2019-06-08T14:10:22.939Z,41.30
2019-06-08T14:12:51.418Z,40.30
2019-06-08T14:15:21.410Z,39.70
2019-06-08T14:17:48.256Z,39.60
2019-06-08T14:20:22.724Z,40.00
2019-06-08T14:22:50.528Z,40.70
2019-06-08T14:25:20.098Z,41.40
2019-06-08T14:27:47.685Z,42.50
2019-06-08T14:30:17.851Z,43.30
2019-06-08T14:32:45.010Z,43.60
2019-06-08T14:35:12.389Z,43.50
2019-06-08T14:37:39.836Z,43.50
2019-06-08T14:40:08.148Z,44.40
2019-06-08T14:42:38.214Z,44.10
2019-06-08T14:45:07.500Z,44.60
2019-06-08T14:47:34.309Z,43.70
2019-06-08T14:50:02.119Z,42.90
2019-06-08T14:52:30.872Z,41.30
2019-06-08T14:54:58.691Z,42.00
2019-06-08T14:57:28.192Z,43.00
2019-06-08T14:59:57.252Z,44.40
2019-06-08T15:02:26.003Z,45.50
2019-06-08T15:04:53.927Z,47.10
2019-06-08T15:07:23.361Z,48.10
2019-06-08T15:09:50.624Z,47.50
2019-06-08T15:12:19.353Z,45.80
2019-06-08T15:14:47.695Z,45.90
2019-06-08T15:17:15.388Z,45.50
2019-06-08T15:19:42.740Z,44.90
2019-06-08T15:22:11.287Z,44.70
2019-06-08T15:24:38.896Z,46.00
2019-06-08T15:27:07.893Z,47.00
2019-06-08T15:29:37.702Z,47.70
2019-06-08T15:32:04.834Z,47.70
2019-06-08T15:34:33.255Z,48.60
2019-06-08T15:37:00.922Z,48.90
2019-06-08T15:39:30.732Z,48.00
2019-06-08T15:42:00.125Z,45.70
2019-06-08T15:44:29.091Z,42.90
2019-06-08T15:46:58.509Z,40.90
2019-06-08T15:49:28.519Z,39.10
2019-06-08T15:51:55.120Z,37.20
2019-06-08T15:54:22.758Z,36.00
2019-06-08T15:56:52.239Z,35.10
2019-06-08T15:59:20.105Z,33.80
2019-06-08T16:01:47.436Z,32.40
2019-06-08T16:04:14.850Z,31.70
2019-06-08T16:06:42.253Z,31.20
2019-06-08T16:09:09.748Z,30.90
2019-06-08T16:11:37.145Z,30.60
2019-06-08T16:14:04.805Z,29.60
2019-06-08T16:16:33.384Z,29.30
2019-06-08T16:19:01.124Z,29.00
2019-06-08T16:21:29.613Z,28.70
2019-06-08T16:23:57.265Z,28.40
2019-06-08T16:26:25.589Z,28.50
2019-06-08T16:28:53.208Z,28.60
2019-06-08T16:31:20.732Z,28.60
2019-06-08T16:33:48.199Z,28.30
2019-06-08T16:36:15.583Z,28.00
2019-06-08T16:38:43.060Z,27.70
2019-06-08T16:41:10.823Z,27.60
2019-06-08T16:43:39.315Z,27.70
2019-06-08T16:46:06.911Z,27.60
2019-06-08T16:48:34.609Z,27.60
2019-06-08T16:51:02.258Z,27.50
2019-06-08T16:53:29.844Z,26.90
2019-06-08T16:55:57.585Z,27.00
2019-06-08T16:58:25.002Z,27.10
2019-06-08T17:00:52.432Z,27.10
2019-06-08T17:03:19.967Z,27.10
2019-06-08T17:05:47.352Z,27.10
2019-06-08T17:08:14.723Z,27.00
2019-06-08T17:10:42.519Z,26.90
2019-06-08T17:13:11.586Z,26.90
2019-06-08T17:15:40.412Z,26.80
2019-06-08T17:18:08.289Z,26.70
2019-06-08T17:20:36.318Z,26.40
2019-06-08T17:23:03.854Z,26.50
2019-06-08T17:25:32.318Z,26.40
2019-06-08T17:27:59.900Z,26.40
2019-06-08T17:30:27.578Z,26.30
2019-06-08T17:32:54.992Z,26.10
2019-06-08T17:35:22.400Z,26.10
2019-06-08T17:37:49.831Z,26.10
2019-06-08T17:40:18.016Z,26.10
2019-06-08T17:42:45.513Z,25.80
2019-06-08T17:45:13.013Z,25.80
2019-06-08T17:47:40.720Z,25.80
2019-06-08T17:50:08.887Z,26.00
2019-06-08T17:52:37.054Z,25.90
2019-06-08T17:55:04.867Z,25.90
2019-06-08T17:57:43.492Z,25.60
2019-06-08T18:00:01.555Z,25.40
2019-06-08T18:02:31.277Z,25.40
2019-06-08T18:04:58.273Z,25.50
2019-06-08T18:07:27.734Z,25.50
2019-06-08T18:09:57.540Z,25.50
2019-06-08T18:12:27.001Z,25.50
2019-06-08T18:14:54.070Z,25.40
2019-06-08T18:17:22.014Z,25.30
2019-06-08T18:19:49.866Z,25.30
2019-06-08T18:22:18.702Z,25.30
2019-06-08T18:24:47.899Z,25.10
2019-06-08T18:27:18.123Z,25.00
2019-06-08T18:29:46.134Z,24.80
2019-06-08T18:32:14.201Z,24.70
2019-06-08T18:34:43.231Z,24.70
2019-06-08T18:37:11.653Z,24.60
2019-06-08T18:39:41.713Z,24.50
2019-06-08T18:42:08.883Z,24.20
2019-06-08T18:44:40.754Z,24.10
2019-06-08T18:47:07.529Z,24.00
2019-06-08T18:49:35.261Z,23.80
2019-06-08T18:52:03.232Z,23.60
2019-06-08T18:54:31.068Z,23.70
2019-06-08T18:56:58.543Z,23.70
2019-06-08T18:59:28.616Z,23.50
2019-06-08T19:01:55.783Z,23.20
2019-06-08T19:04:23.420Z,23.30
2019-06-08T19:06:51.842Z,23.10
2019-06-08T19:09:40.929Z,23.10
2019-06-08T19:12:08.706Z,22.90
2019-06-08T19:14:37.774Z,22.70
2019-06-08T19:17:07.554Z,22.40
2019-06-08T19:19:38.527Z,22.20
2019-06-08T19:22:04.636Z,22.10
2019-06-08T19:24:32.517Z,22.10
2019-06-08T19:27:00.665Z,22.10
2019-06-08T19:29:28.253Z,22.00
2019-06-08T19:31:57.212Z,21.90
2019-06-08T19:34:28.214Z,21.80
2019-06-08T19:36:54.612Z,21.70
2019-06-08T19:39:23.566Z,21.60
2019-06-08T19:41:51.049Z,21.50
2019-06-08T19:44:19.427Z,21.30
2019-06-08T19:46:47.565Z,21.30
2019-06-08T19:49:17.286Z,21.20
2019-06-08T19:51:47.697Z,21.10
2019-06-08T19:54:14.260Z,21.10
2019-06-08T19:56:41.938Z,21.00
2019-06-08T19:59:09.605Z,21.00
2019-06-08T20:01:37.947Z,20.80
2019-06-08T20:04:07.372Z,20.70
2019-06-08T20:06:34.705Z,20.60
2019-06-08T20:09:02.514Z,20.60
2019-06-08T20:11:30.240Z,20.40
2019-06-08T20:13:57.743Z,20.40
2019-06-08T20:16:25.180Z,20.30
2019-06-08T20:18:54.347Z,20.20
2019-06-08T20:21:21.816Z,20.00
2019-06-08T20:23:50.818Z,19.90
2019-06-08T20:26:18.902Z,19.80
2019-06-08T20:28:49.709Z,19.60
2019-06-08T20:31:17.885Z,19.60
2019-06-08T20:33:45.856Z,19.60
2019-06-08T20:36:13.398Z,19.70
2019-06-08T20:38:42.697Z,19.50
2019-06-08T20:41:10.172Z,19.40
2019-06-08T20:43:40.856Z,19.20
2019-06-08T20:46:08.123Z,19.00
2019-06-08T20:48:37.762Z,19.00
2019-06-08T20:51:07.816Z,18.90
2019-06-08T20:53:35.199Z,18.80
2019-06-08T20:56:02.728Z,18.80
2019-06-08T20:58:30.206Z,18.80
2019-06-08T21:00:57.781Z,18.70
2019-06-08T21:03:27.836Z,18.60
2019-06-08T21:05:54.922Z,18.50
2019-06-08T21:08:22.743Z,18.50
2019-06-08T21:10:53.818Z,18.40
2019-06-08T21:13:19.455Z,18.30
2019-06-08T21:15:50.643Z,18.30
2019-06-08T21:18:16.058Z,18.30
2019-06-08T21:20:43.395Z,18.30
2019-06-08T21:23:11.141Z,18.20
2019-06-08T21:25:38.506Z,18.30
2019-06-08T21:28:07.822Z,18.20
2019-06-08T21:30:37.522Z,18.10
2019-06-08T21:33:04.456Z,18.00
2019-06-08T21:35:31.954Z,17.80
2019-06-08T21:38:01.143Z,17.70
2019-06-08T21:40:28.613Z,17.70
2019-06-08T21:42:59.876Z,17.70
2019-06-08T21:45:27.623Z,17.60
2019-06-08T21:47:56.003Z,17.50
2019-06-08T21:50:24.499Z,17.50
2019-06-08T21:52:53.102Z,17.40
2019-06-08T21:55:21.115Z,17.40
2019-06-08T21:57:51.131Z,17.30
2019-06-08T22:00:38.624Z,17.20
2019-06-08T22:02:51.757Z,17.20
2019-06-08T22:05:19.316Z,17.20
2019-06-08T22:07:47.227Z,17.10
2019-06-08T22:10:14.681Z,17.00
2019-06-08T22:12:42.107Z,17.00
2019-06-08T22:15:09.846Z,16.90
2019-06-08T22:17:38.360Z,16.80
2019-06-08T22:20:08.043Z,16.80
2019-06-08T22:22:37.636Z,16.70
2019-06-08T22:25:07.906Z,16.50
2019-06-08T22:27:34.727Z,16.60
2019-06-08T22:30:09.594Z,16.70
2019-06-08T22:32:31.745Z,16.70
2019-06-08T22:35:00.192Z,16.60
2019-06-08T22:37:28.418Z,16.60
2019-06-08T22:39:57.848Z,16.50
2019-06-08T22:42:25.060Z,16.60
2019-06-08T22:44:52.824Z,16.60
2019-06-08T22:47:21.726Z,16.60
2019-06-08T22:49:49.112Z,16.60
2019-06-08T22:52:18.616Z,16.70
2019-06-08T22:54:47.668Z,16.70
2019-06-08T22:57:15.195Z,16.70
2019-06-08T22:59:42.538Z,16.70
2019-06-08T23:02:09.990Z,16.70
2019-06-08T23:04:37.302Z,16.60
2019-06-08T23:07:06.422Z,16.60
2019-06-08T23:09:33.879Z,16.50
2019-06-08T23:12:03.531Z,16.50
2019-06-08T23:14:30.430Z,16.50
2019-06-08T23:17:00.611Z,16.50
2019-06-08T23:19:27.137Z,16.50
2019-06-08T23:21:55.215Z,16.50
2019-06-08T23:24:22.687Z,16.40
2019-06-08T23:26:50.075Z,16.30
2019-06-08T23:29:17.938Z,16.30
2019-06-08T23:31:47.760Z,16.20
2019-06-08T23:34:14.527Z,16.20
2019-06-08T23:36:58.528Z,16.10
2019-06-08T23:39:11.057Z,16.10
2019-06-08T23:41:38.393Z,16.00
2019-06-08T23:44:05.738Z,15.90
2019-06-08T23:46:33.096Z,15.80
2019-06-08T23:49:01.947Z,15.70
2019-06-08T23:51:29.640Z,15.60
2019-06-08T23:53:59.681Z,15.60
2019-06-08T23:56:27.716Z,15.60
2019-06-08T23:58:55.198Z,15.60
